createdAt,value
2023-06-08T00:01:47.179Z,18.11
2023-06-08T00:04:14.207Z,18.04
2023-06-08T00:06:42.314Z,18.03
2023-06-08T00:09:10.534Z,18.01
2023-06-08T00:11:38.132Z,17.86
2023-06-08T00:14:04.762Z,17.85
2023-06-08T00:16:31.256Z,17.85
2023-06-08T00:18:58.082Z,17.94
2023-06-08T00:21:25.064Z,17.87
2023-06-08T00:23:52.015Z,17.78
2023-06-08T00:26:18.660Z,17.71
2023-06-08T00:28:48.759Z,17.60
2023-06-08T00:31:18.618Z,17.70
2023-06-08T00:33:45.165Z,17.49
2023-06-08T00:36:13.471Z,17.56
2023-06-08T00:38:40.007Z,17.54
2023-06-08T00:41:07.097Z,17.50
2023-06-08T00:43:34.053Z,17.41
2023-06-08T00:46:03.166Z,17.43
2023-06-08T00:48:30.908Z,17.35
2023-06-08T00:50:58.426Z,17.30
2023-06-08T00:53:25.713Z,17.50
2023-06-08T00:55:52.792Z,17.53
2023-06-08T00:58:19.648Z,17.63
2023-06-08T01:00:47.610Z,17.80
2023-06-08T01:03:16.007Z,17.73
2023-06-08T01:05:46.070Z,17.61
2023-06-08T01:08:39.250Z,17.58
2023-06-08T01:11:20.060Z,17.55
2023-06-08T01:13:55.700Z,17.62
2023-06-08T01:16:23.604Z,17.55
2023-06-08T01:18:52.975Z,17.55
2023-06-08T01:21:39.620Z,17.51
2023-06-08T01:24:13.454Z,17.46
2023-06-08T01:26:50.596Z,17.47
2023-06-08T01:29:26.793Z,17.43
2023-06-08T01:31:53.429Z,17.50
2023-06-08T01:34:20.544Z,17.43
2023-06-08T01:36:55.715Z,17.45
2023-06-08T01:39:46.530Z,17.25
2023-06-08T01:42:16.115Z,17.07
2023-06-08T01:44:45.463Z,17.00
2023-06-08T01:47:13.781Z,17.14
2023-06-08T01:49:41.381Z,17.27
2023-06-08T01:52:10.890Z,17.14
2023-06-08T01:54:37.743Z,17.05
2023-06-08T01:57:04.397Z,17.00
2023-06-08T01:59:33.932Z,17.06
2023-06-08T02:02:01.643Z,17.27
2023-06-08T02:04:28.185Z,17.14
2023-06-08T02:06:55.938Z,17.02
2023-06-08T02:09:22.558Z,17.07
2023-06-08T02:11:50.246Z,17.06
2023-06-08T02:14:16.783Z,16.94
2023-06-08T02:16:45.376Z,17.03
2023-06-08T02:19:15.303Z,17.10
2023-06-08T02:21:42.471Z,17.10
2023-06-08T02:24:09.277Z,17.10
2023-06-08T02:26:35.835Z,17.11
2023-06-08T02:29:02.373Z,17.03
2023-06-08T02:31:29.391Z,17.02
2023-06-08T02:33:55.896Z,16.99
2023-06-08T02:36:24.276Z,16.99
2023-06-08T02:38:51.008Z,16.91
2023-06-08T02:41:18.193Z,16.98
2023-06-08T02:43:44.751Z,17.06
2023-06-08T02:46:11.622Z,17.14
2023-06-08T02:48:39.144Z,17.12
2023-06-08T02:51:05.897Z,17.06
2023-06-08T02:53:32.476Z,17.06
2023-06-08T02:55:59.286Z,17.03
2023-06-08T02:58:27.490Z,16.98
2023-06-08T03:01:19.445Z,16.82
2023-06-08T03:04:06.653Z,16.71
2023-06-08T03:06:43.521Z,16.78
2023-06-08T03:09:12.157Z,16.89
2023-06-08T03:11:42.452Z,16.91
2023-06-08T03:14:11.626Z,16.76
2023-06-08T03:16:38.705Z,16.71
2023-06-08T03:19:05.969Z,16.77
2023-06-08T03:21:34.273Z,16.86
2023-06-08T03:24:01.124Z,16.88
2023-06-08T03:26:29.488Z,16.94
2023-06-08T03:28:57.984Z,17.04
2023-06-08T03:31:25.351Z,17.11
2023-06-08T03:33:53.159Z,17.13
2023-06-08T03:36:20.146Z,17.10
2023-06-08T03:38:46.696Z,16.83
2023-06-08T03:41:16.328Z,16.92
2023-06-08T03:43:46.484Z,17.05
2023-06-08T03:46:13.879Z,17.10
2023-06-08T03:48:41.608Z,17.07
2023-06-08T03:51:08.312Z,17.17
2023-06-08T03:53:36.806Z,17.16
2023-06-08T03:56:04.250Z,17.19
2023-06-08T03:58:34.067Z,17.39
2023-06-08T04:01:01.066Z,17.50
2023-06-08T04:03:28.516Z,17.37
2023-06-08T04:05:55.289Z,17.46
2023-06-08T04:08:22.962Z,17.49
2023-06-08T04:10:50.932Z,17.69
2023-06-08T04:13:17.414Z,17.74
2023-06-08T04:15:45.128Z,17.72
2023-06-08T04:18:12.998Z,17.79
2023-06-08T04:20:41.253Z,17.78
2023-06-08T04:23:08.170Z,17.78
2023-06-08T04:25:34.807Z,17.78
2023-06-08T04:28:01.520Z,17.68
2023-06-08T04:30:29.414Z,17.67
2023-06-08T04:32:56.571Z,17.76
2023-06-08T04:35:23.879Z,17.75
2023-06-08T04:37:50.718Z,17.77
2023-06-08T04:40:18.092Z,17.87
2023-06-08T04:42:45.668Z,18.06
2023-06-08T04:45:12.583Z,18.28
2023-06-08T04:47:43.303Z,18.21
2023-06-08T04:50:10.136Z,18.25
2023-06-08T04:52:41.484Z,18.36
2023-06-08T04:55:08.938Z,18.46
2023-06-08T04:57:35.557Z,18.68
2023-06-08T05:00:02.265Z,18.81
2023-06-08T05:02:28.849Z,18.67
2023-06-08T05:04:56.677Z,18.67
2023-06-08T05:07:23.169Z,18.90
2023-06-08T05:09:50.960Z,18.86
2023-06-08T05:12:17.444Z,18.82
2023-06-08T05:14:43.928Z,18.72
2023-06-08T05:17:10.866Z,19.01
2023-06-08T05:19:37.452Z,19.10
2023-06-08T05:22:04.031Z,19.19
2023-06-08T05:24:30.614Z,19.41
2023-06-08T05:26:57.096Z,19.10
2023-06-08T05:29:23.619Z,19.18
2023-06-08T05:31:50.690Z,19.35
2023-06-08T05:34:17.976Z,19.41
2023-06-08T05:36:44.530Z,19.12
2023-06-08T05:39:11.454Z,19.17
2023-06-08T05:41:37.968Z,19.51
2023-06-08T05:44:04.506Z,19.95
2023-06-08T05:46:31.132Z,19.86
2023-06-08T05:48:58.380Z,19.52
2023-06-08T05:51:24.931Z,19.53
2023-06-08T05:53:51.435Z,19.88
2023-06-08T05:56:17.902Z,20.17
2023-06-08T05:58:49.886Z,20.46
2023-06-08T06:01:16.949Z,20.78
2023-06-08T06:03:43.815Z,20.29
2023-06-08T06:06:12.150Z,20.61
2023-06-08T06:08:40.213Z,20.68
2023-06-08T06:11:07.900Z,20.37
2023-06-08T06:13:35.243Z,20.14
2023-06-08T06:16:01.977Z,20.75
2023-06-08T06:18:28.740Z,20.81
2023-06-08T06:20:55.368Z,20.51
2023-06-08T06:23:21.898Z,22.05
2023-06-08T06:25:51.243Z,22.24
2023-06-08T06:28:17.985Z,22.87
2023-06-08T06:30:44.497Z,22.43
2023-06-08T06:33:11.152Z,21.98
2023-06-08T06:35:37.698Z,21.36
2023-06-08T06:38:04.231Z,22.05
2023-06-08T06:40:30.937Z,22.08
2023-06-08T06:42:57.554Z,22.00
2023-06-08T06:45:41.324Z,21.75
2023-06-08T06:48:07.851Z,22.97
2023-06-08T06:50:34.482Z,23.42
2023-06-08T06:53:00.972Z,23.64
2023-06-08T06:55:27.550Z,24.52
2023-06-08T06:57:54.330Z,24.19
2023-06-08T07:00:21.045Z,23.18
2023-06-08T07:02:48.521Z,23.11
2023-06-08T07:05:15.551Z,23.02
2023-06-08T07:07:42.087Z,22.02
2023-06-08T07:10:08.931Z,23.09
2023-06-08T07:12:35.900Z,23.30
2023-06-08T07:15:02.458Z,23.71
2023-06-08T07:17:30.325Z,23.64
2023-06-08T07:19:58.784Z,23.79
2023-06-08T07:22:39.657Z,23.46
2023-06-08T07:25:43.969Z,23.55
2023-06-08T07:27:59.544Z,23.46
2023-06-08T07:30:27.296Z,23.71
2023-06-08T07:32:53.911Z,23.55
2023-06-08T07:35:20.819Z,23.35
2023-06-08T07:37:48.133Z,23.18
2023-06-08T07:40:18.948Z,23.56
2023-06-08T07:42:45.990Z,23.79
2023-06-08T07:45:13.015Z,24.02
2023-06-08T07:47:40.184Z,23.71
2023-06-08T07:50:07.565Z,23.23
2023-06-08T07:52:34.376Z,23.56
2023-06-08T07:55:01.070Z,23.67
2023-06-08T07:57:28.505Z,23.96
2023-06-08T07:59:55.016Z,23.51
2023-06-08T08:02:21.945Z,23.45
2023-06-08T08:04:48.696Z,23.91
2023-06-08T08:07:15.376Z,23.24
2023-06-08T08:09:44.928Z,22.90
2023-06-08T08:12:11.517Z,23.16
2023-06-08T08:14:38.719Z,23.39
2023-06-08T08:17:05.590Z,23.58
2023-06-08T08:19:32.223Z,23.96
2023-06-08T08:21:58.685Z,23.02
2023-06-08T08:24:25.177Z,24.06
2023-06-08T08:26:54.409Z,24.05
2023-06-08T08:29:20.900Z,24.23
2023-06-08T08:31:47.385Z,24.16
2023-06-08T08:34:13.876Z,24.00
2023-06-08T08:36:40.832Z,24.67
2023-06-08T08:39:08.523Z,24.02
2023-06-08T08:41:35.959Z,23.93
2023-06-08T08:44:04.216Z,24.84
2023-06-08T08:46:40.339Z,25.01
2023-06-08T08:49:15.328Z,25.30
2023-06-08T08:51:44.263Z,24.91
2023-06-08T08:54:13.310Z,26.02
2023-06-08T08:56:39.969Z,24.85
2023-06-08T08:59:06.591Z,25.03
2023-06-08T09:01:33.895Z,25.18
2023-06-08T09:04:00.969Z,24.29
2023-06-08T09:06:30.764Z,25.33
2023-06-08T09:08:57.659Z,24.51
2023-06-08T09:11:25.048Z,24.58
2023-06-08T09:14:08.524Z,24.81
2023-06-08T09:16:44.708Z,24.65
2023-06-08T09:19:11.645Z,25.20
2023-06-08T09:21:38.220Z,25.40
2023-06-08T09:24:11.414Z,25.02
2023-06-08T09:26:58.928Z,25.48
2023-06-08T09:29:41.951Z,25.45
2023-06-08T09:32:15.515Z,25.05
2023-06-08T09:35:02.043Z,25.43
2023-06-08T09:37:32.508Z,25.24
2023-06-08T09:40:00.313Z,26.00
2023-06-08T09:42:47.411Z,25.47
2023-06-08T09:45:15.774Z,27.78
2023-06-08T09:47:43.567Z,26.93
2023-06-08T09:50:11.128Z,27.86
2023-06-08T09:52:38.587Z,27.85
2023-06-08T09:55:06.350Z,27.98
2023-06-08T09:57:34.323Z,27.79
2023-06-08T10:00:15.652Z,28.00
2023-06-08T10:02:44.054Z,27.36
2023-06-08T10:05:14.311Z,28.34
2023-06-08T10:07:43.052Z,27.77
2023-06-08T10:10:12.392Z,27.51
2023-06-08T10:12:39.597Z,27.69
2023-06-08T10:15:07.053Z,28.03
2023-06-08T10:17:34.902Z,28.09
2023-06-08T10:20:01.580Z,28.21
2023-06-08T10:22:29.362Z,30.46
2023-06-08T10:25:08.377Z,30.75
2023-06-08T10:27:37.195Z,27.49
2023-06-08T10:30:05.703Z,27.10
2023-06-08T10:32:33.261Z,28.27
2023-06-08T10:35:02.175Z,28.33
2023-06-08T10:37:29.860Z,27.85
2023-06-08T10:39:57.659Z,28.60
2023-06-08T10:42:24.357Z,28.34
2023-06-08T10:44:57.625Z,28.73
2023-06-08T10:47:24.634Z,27.46
2023-06-08T10:50:04.873Z,26.59
2023-06-08T10:52:39.833Z,28.43
2023-06-08T10:55:09.916Z,28.28
2023-06-08T10:57:36.776Z,27.64
2023-06-08T11:00:33.375Z,27.24
2023-06-08T11:03:01.041Z,28.15
2023-06-08T11:05:31.707Z,28.20
2023-06-08T11:07:58.297Z,26.72
2023-06-08T11:10:24.889Z,28.34
2023-06-08T11:12:51.461Z,29.49
2023-06-08T11:15:19.697Z,30.65
2023-06-08T11:17:52.418Z,30.42
2023-06-08T11:20:24.259Z,27.54
2023-06-08T11:22:50.840Z,28.91
2023-06-08T11:25:26.363Z,28.46
2023-06-08T11:27:56.511Z,28.20
2023-06-08T11:30:25.138Z,29.86
2023-06-08T11:32:52.123Z,29.62
2023-06-08T11:35:19.496Z,29.56
2023-06-08T11:37:46.310Z,29.19
2023-06-08T11:40:13.746Z,29.36
2023-06-08T11:42:41.092Z,28.75
2023-06-08T11:45:09.142Z,27.63
2023-06-08T11:47:35.901Z,27.52
2023-06-08T11:50:04.477Z,26.40
2023-06-08T11:52:31.649Z,27.42
2023-06-08T11:55:00.624Z,29.02
2023-06-08T11:57:43.330Z,28.80
2023-06-08T12:00:23.182Z,28.31
2023-06-08T12:02:52.685Z,26.66
2023-06-08T12:05:21.705Z,25.74
2023-06-08T12:08:00.351Z,26.27
2023-06-08T12:10:35.608Z,27.52
2023-06-08T12:13:09.219Z,28.50
2023-06-08T12:15:37.202Z,28.16
2023-06-08T12:18:03.826Z,26.61
2023-06-08T12:20:34.289Z,26.23
2023-06-08T12:23:01.021Z,26.74
2023-06-08T12:25:27.607Z,26.37
2023-06-08T12:27:55.718Z,26.95
2023-06-08T12:30:24.542Z,26.53
2023-06-08T12:32:51.665Z,26.35
2023-06-08T12:35:19.705Z,25.79
2023-06-08T12:37:50.343Z,25.95
2023-06-08T12:40:17.931Z,26.23
2023-06-08T12:42:50.069Z,25.87
2023-06-08T12:45:22.949Z,26.17
2023-06-08T12:47:49.835Z,26.14
2023-06-08T12:50:22.997Z,26.32
2023-06-08T12:52:49.787Z,26.90
2023-06-08T12:55:17.618Z,26.13
2023-06-08T12:57:44.646Z,26.06
2023-06-08T13:00:13.030Z,26.24
2023-06-08T13:02:39.781Z,26.03
2023-06-08T13:05:06.849Z,25.34
2023-06-08T13:07:33.790Z,25.69
2023-06-08T13:10:00.448Z,25.12
2023-06-08T13:12:29.299Z,24.62
2023-06-08T13:14:56.311Z,24.57
2023-06-08T13:17:23.196Z,24.96
2023-06-08T13:19:50.027Z,24.82
2023-06-08T13:22:16.833Z,25.81
2023-06-08T13:24:43.516Z,26.61
2023-06-08T13:27:10.494Z,26.88
2023-06-08T13:29:39.623Z,29.03
2023-06-08T13:32:06.776Z,30.02
2023-06-08T13:34:33.450Z,28.75
2023-06-08T13:37:02.289Z,27.62
2023-06-08T13:39:29.039Z,26.89
2023-06-08T13:41:55.554Z,26.08
2023-06-08T13:44:22.651Z,25.61
2023-06-08T13:46:49.221Z,25.46
2023-06-08T13:49:15.859Z,25.02
2023-06-08T13:51:43.306Z,24.86
2023-06-08T13:54:09.837Z,24.14
2023-06-08T13:56:36.323Z,23.70
2023-06-08T13:59:03.223Z,23.44
2023-06-08T14:01:29.943Z,23.29
2023-06-08T14:03:57.458Z,23.01
2023-06-08T14:06:24.170Z,22.64
2023-06-08T14:08:50.670Z,22.08
2023-06-08T14:11:17.177Z,21.64
2023-06-08T14:13:44.767Z,21.16
2023-06-08T14:16:13.996Z,20.58
2023-06-08T14:18:42.079Z,20.27
2023-06-08T14:21:09.094Z,19.94
2023-06-08T14:23:35.791Z,19.93
2023-06-08T14:26:02.680Z,19.62
2023-06-08T14:28:29.183Z,19.34
2023-06-08T14:30:56.112Z,19.40
2023-06-08T14:33:22.667Z,19.61
2023-06-08T14:35:49.215Z,19.54
2023-06-08T14:38:15.762Z,19.30
2023-06-08T14:40:42.324Z,19.22
2023-06-08T14:43:09.063Z,18.68
2023-06-08T14:45:37.127Z,18.55
2023-06-08T14:48:04.017Z,18.46
2023-06-08T14:50:30.912Z,18.26
2023-06-08T14:52:57.532Z,17.87
2023-06-08T14:55:23.985Z,17.91
2023-06-08T14:57:50.724Z,17.68
2023-06-08T15:00:17.845Z,17.72
2023-06-08T15:02:44.392Z,17.80
2023-06-08T15:05:11.046Z,17.57
2023-06-08T15:07:37.532Z,17.67
2023-06-08T15:10:04.850Z,17.74
2023-06-08T15:12:31.558Z,17.54
2023-06-08T15:14:58.187Z,17.57
2023-06-08T15:17:24.811Z,17.48
2023-06-08T15:19:51.764Z,17.84
2023-06-08T15:22:18.385Z,18.10
2023-06-08T15:24:44.924Z,17.67
2023-06-08T15:27:11.481Z,17.49
2023-06-08T15:29:38.007Z,17.52
2023-06-08T15:32:04.753Z,17.21
2023-06-08T15:34:31.245Z,17.62
2023-06-08T15:36:57.732Z,17.87
2023-06-08T15:39:24.211Z,18.07
2023-06-08T15:41:50.776Z,18.12
2023-06-08T15:44:17.353Z,18.28
2023-06-08T15:46:43.991Z,18.08
2023-06-08T15:49:10.618Z,17.76
2023-06-08T15:51:43.177Z,17.51
2023-06-08T15:54:10.916Z,17.55
2023-06-08T15:56:37.520Z,17.52
2023-06-08T15:59:04.008Z,17.54
2023-06-08T16:01:32.479Z,17.28
2023-06-08T16:03:59.717Z,17.33
2023-06-08T16:06:26.590Z,17.36
2023-06-08T16:08:53.283Z,17.29
2023-06-08T16:11:21.179Z,17.28
2023-06-08T16:13:50.077Z,17.24
2023-06-08T16:16:16.965Z,17.36
2023-06-08T16:18:43.535Z,17.68
2023-06-08T16:21:10.181Z,17.73
2023-06-08T16:23:36.755Z,17.79
2023-06-08T16:26:03.618Z,17.80
2023-06-08T16:28:31.612Z,17.78
2023-06-08T16:30:58.544Z,17.56
2023-06-08T16:33:25.084Z,17.40
2023-06-08T16:35:53.405Z,17.34
2023-06-08T16:38:20.450Z,17.42
2023-06-08T16:40:47.020Z,17.39
2023-06-08T16:43:13.954Z,17.43
2023-06-08T16:45:40.474Z,17.90
2023-06-08T16:48:07.068Z,17.81
2023-06-08T16:50:33.671Z,17.82
2023-06-08T16:53:00.243Z,17.84
2023-06-08T16:55:26.918Z,17.61
2023-06-08T16:57:53.622Z,17.58
2023-06-08T17:00:21.527Z,17.57
2023-06-08T17:02:48.089Z,17.62
2023-06-08T17:05:15.020Z,17.87
2023-06-08T17:07:41.723Z,18.14
2023-06-08T17:10:08.735Z,18.19
2023-06-08T17:12:35.658Z,18.42
2023-06-08T17:15:04.801Z,18.51
2023-06-08T17:17:31.388Z,18.47
2023-06-08T17:19:58.001Z,18.67
2023-06-08T17:22:25.104Z,18.73
2023-06-08T17:24:51.714Z,18.75
2023-06-08T17:27:18.318Z,18.96
2023-06-08T17:29:44.984Z,18.88
2023-06-08T17:32:11.639Z,18.88
2023-06-08T17:34:38.123Z,19.14
2023-06-08T17:37:04.765Z,19.06
2023-06-08T17:39:31.267Z,19.05
2023-06-08T17:41:57.801Z,18.83
2023-06-08T17:44:24.393Z,18.69
2023-06-08T17:46:50.900Z,18.84
2023-06-08T17:49:18.960Z,18.95
2023-06-08T17:51:45.937Z,18.94
2023-06-08T17:54:15.051Z,18.88
2023-06-08T17:56:44.678Z,19.18
2023-06-08T17:59:12.204Z,18.74
2023-06-08T18:01:38.862Z,18.59
2023-06-08T18:04:06.234Z,18.46
2023-06-08T18:06:32.931Z,18.50
2023-06-08T18:08:59.766Z,18.36
2023-06-08T18:11:27.387Z,18.31
2023-06-08T18:13:54.194Z,18.24
2023-06-08T18:16:21.302Z,17.87
2023-06-08T18:18:48.883Z,17.86
2023-06-08T18:21:15.962Z,17.74
2023-06-08T18:23:42.692Z,17.70
2023-06-08T18:26:09.271Z,17.65
2023-06-08T18:28:35.875Z,17.79
2023-06-08T18:31:02.398Z,17.66
2023-06-08T18:33:29.048Z,17.54
2023-06-08T18:35:55.655Z,17.67
2023-06-08T18:38:22.549Z,17.57
2023-06-08T18:40:49.177Z,17.54
2023-06-08T18:43:15.899Z,17.50
2023-06-08T18:45:42.494Z,17.40
2023-06-08T18:48:10.164Z,17.12
2023-06-08T18:50:36.833Z,17.05
2023-06-08T18:53:03.566Z,16.96
2023-06-08T18:55:32.115Z,17.08
2023-06-08T18:57:59.882Z,17.13
2023-06-08T19:00:27.013Z,17.22
2023-06-08T19:02:55.420Z,17.25
2023-06-08T19:05:21.990Z,17.17
2023-06-08T19:07:48.537Z,17.09
2023-06-08T19:10:15.157Z,17.08
2023-06-08T19:12:41.657Z,17.14
2023-06-08T19:15:09.251Z,17.24
2023-06-08T19:17:35.775Z,17.28
2023-06-08T19:20:02.402Z,17.11
2023-06-08T19:22:28.985Z,17.02
2023-06-08T19:24:55.542Z,17.05
2023-06-08T19:27:22.128Z,17.12
2023-06-08T19:29:48.839Z,17.02
2023-06-08T19:32:15.469Z,17.07
2023-06-08T19:34:42.295Z,17.11
2023-06-08T19:37:08.902Z,17.06
2023-06-08T19:39:35.398Z,17.09
2023-06-08T19:42:04.023Z,17.08
2023-06-08T19:44:31.411Z,16.83
2023-06-08T19:46:58.242Z,16.41
2023-06-08T19:49:27.927Z,16.39
2023-06-08T19:51:55.498Z,16.46
2023-06-08T19:54:23.933Z,16.72
2023-06-08T19:56:51.316Z,16.78
2023-06-08T19:59:18.531Z,16.75
2023-06-08T20:01:49.999Z,16.67
2023-06-08T20:04:16.963Z,16.70
2023-06-08T20:06:47.735Z,16.67
2023-06-08T20:09:14.972Z,16.71
2023-06-08T20:11:41.481Z,16.68
2023-06-08T20:14:07.984Z,16.74
2023-06-08T20:16:34.591Z,16.75
2023-06-08T20:19:01.224Z,16.74
2023-06-08T20:21:27.710Z,16.70
2023-06-08T20:23:55.106Z,16.58
2023-06-08T20:26:24.294Z,16.63
2023-06-08T20:28:51.508Z,16.53
2023-06-08T20:31:18.020Z,16.37
2023-06-08T20:33:44.568Z,16.47
2023-06-08T20:36:11.101Z,16.57
2023-06-08T20:38:37.693Z,16.53
2023-06-08T20:41:04.184Z,16.48
2023-06-08T20:43:30.694Z,16.20
2023-06-08T20:45:57.271Z,16.09
2023-06-08T20:48:25.318Z,16.28
2023-06-08T20:50:51.900Z,16.31
2023-06-08T20:53:18.368Z,16.39
2023-06-08T20:55:46.343Z,16.38
2023-06-08T20:58:13.200Z,16.24
2023-06-08T21:00:39.952Z,16.23
2023-06-08T21:03:06.615Z,16.31
2023-06-08T21:05:33.352Z,16.29
2023-06-08T21:07:59.889Z,16.34
2023-06-08T21:10:28.155Z,16.20
2023-06-08T21:12:54.788Z,16.25
2023-06-08T21:15:21.388Z,16.16
2023-06-08T21:17:48.192Z,16.31
2023-06-08T21:20:14.755Z,16.41
2023-06-08T21:22:41.975Z,16.13
2023-06-08T21:25:08.915Z,16.19
2023-06-08T21:27:35.673Z,16.10
2023-06-08T21:30:02.265Z,15.95
2023-06-08T21:32:28.778Z,15.91
2023-06-08T21:34:55.372Z,16.00
2023-06-08T21:37:21.842Z,16.00
2023-06-08T21:39:48.377Z,16.09
2023-06-08T21:42:15.056Z,16.21
2023-06-08T21:44:41.697Z,16.24
2023-06-08T21:47:08.213Z,16.30
2023-06-08T21:49:34.765Z,16.33
2023-06-08T21:52:01.472Z,16.33
2023-06-08T21:54:28.110Z,16.38
2023-06-08T21:56:54.735Z,16.45
2023-06-08T21:59:21.464Z,16.30
2023-06-08T22:01:48.200Z,16.28
2023-06-08T22:04:14.900Z,16.21
2023-06-08T22:06:41.544Z,16.16
2023-06-08T22:09:08.086Z,16.31
2023-06-08T22:11:35.315Z,16.30
2023-06-08T22:14:03.948Z,16.26
2023-06-08T22:16:31.274Z,16.16
2023-06-08T22:19:01.728Z,16.24
2023-06-08T22:21:28.548Z,16.17
2023-06-08T22:23:55.065Z,16.16
2023-06-08T22:26:21.617Z,16.25
2023-06-08T22:28:48.155Z,16.25
2023-06-08T22:31:14.987Z,16.18
2023-06-08T22:33:41.601Z,16.18
2023-06-08T22:36:09.715Z,16.21
2023-06-08T22:38:36.259Z,16.25
2023-06-08T22:41:02.810Z,16.26
2023-06-08T22:43:29.375Z,16.28
2023-06-08T22:45:55.991Z,16.41
2023-06-08T22:48:23.474Z,16.38
2023-06-08T22:50:50.192Z,16.28
2023-06-08T22:53:22.552Z,16.22
2023-06-08T22:55:49.921Z,16.36
2023-06-08T22:58:16.546Z,16.31
2023-06-08T23:00:43.303Z,16.17
2023-06-08T23:03:10.916Z,15.97
2023-06-08T23:05:37.728Z,15.92
2023-06-08T23:08:04.424Z,15.98
2023-06-08T23:10:30.907Z,15.95
2023-06-08T23:12:57.772Z,15.91
2023-06-08T23:15:24.685Z,15.85
2023-06-08T23:17:52.407Z,15.91
2023-06-08T23:20:18.968Z,15.86
2023-06-08T23:22:45.808Z,15.82
2023-06-08T23:25:14.458Z,15.84
2023-06-08T23:27:41.039Z,15.83
2023-06-08T23:30:08.580Z,15.75
2023-06-08T23:32:35.284Z,15.77
2023-06-08T23:35:01.979Z,15.56
2023-06-08T23:37:29.270Z,15.83
2023-06-08T23:39:55.820Z,15.83
2023-06-08T23:42:22.872Z,15.91
2023-06-08T23:44:50.117Z,15.99
2023-06-08T23:47:21.698Z,15.84
2023-06-08T23:49:48.718Z,15.88
2023-06-08T23:52:15.684Z,15.93
2023-06-08T23:54:42.307Z,15.80
2023-06-08T23:57:09.594Z,15.70
2023-06-08T23:59:38.272Z,15.49
